createdAt,value
2019-04-04T00:01:36.073Z,20.03
2019-04-04T00:04:43.259Z,12.87
2019-04-04T00:07:50.331Z,15.53
2019-04-04T00:10:57.615Z,8.80
2019-04-04T00:14:05.247Z,8.80
2019-04-04T00:17:12.356Z,7.83
2019-04-04T00:23:25.806Z,5.97
2019-04-04T00:26:33.392Z,6.97
2019-04-04T00:29:40.575Z,4.13
2019-04-04T00:32:48.236Z,4.77
2019-04-04T00:35:55.274Z,3.77
2019-04-04T00:39:02.266Z,4.27
2019-04-04T00:42:09.968Z,2.23
2019-04-04T00:45:17.292Z,2.90
2019-04-04T00:48:24.709Z,2.87
2019-04-04T00:51:31.773Z,3.97
2019-04-04T00:54:38.987Z,4.07
2019-04-04T00:57:46.014Z,5.83
2019-04-04T01:00:54.866Z,6.07
2019-04-04T01:04:01.989Z,5.93
2019-04-04T01:07:08.936Z,6.50
2019-04-04T01:10:18.805Z,8.73
2019-04-04T01:13:27.526Z,7.00
2019-04-04T01:16:35.484Z,8.37
2019-04-04T01:19:43.296Z,6.07
2019-04-04T01:22:50.424Z,8.00
2019-04-04T01:25:58.227Z,6.90
2019-04-04T01:29:05.837Z,9.43
2019-04-04T01:32:15.152Z,8.70
2019-04-04T01:35:24.063Z,5.63
2019-04-04T01:38:31.278Z,4.90
2019-04-04T01:41:38.682Z,4.50
2019-04-04T01:44:45.990Z,4.37
2019-04-04T01:47:53.290Z,3.97
2019-04-04T01:51:00.808Z,2.67
2019-04-04T01:54:07.969Z,3.60
2019-04-04T01:57:15.602Z,2.50
2019-04-04T02:00:22.458Z,3.50
2019-04-04T02:06:38.243Z,2.73
2019-04-04T02:09:46.285Z,3.13
2019-04-04T02:12:53.490Z,9.80
2019-04-04T02:16:00.934Z,8.63
2019-04-04T02:19:07.971Z,6.67
2019-04-04T02:22:15.236Z,5.70
2019-04-04T02:25:25.541Z,6.73
2019-04-04T02:28:32.588Z,4.93
2019-04-04T02:31:53.279Z,7.80
2019-04-04T02:34:59.596Z,6.07
2019-04-04T02:38:07.244Z,5.87
2019-04-04T02:44:22.892Z,5.97
2019-04-04T02:47:30.408Z,6.50
2019-04-04T02:50:37.380Z,2.57
2019-04-04T02:59:56.605Z,3.07
2019-04-04T03:03:08.057Z,3.37
2019-04-04T03:06:14.286Z,3.03
2019-04-04T03:09:21.320Z,2.60
2019-04-04T03:12:28.403Z,3.20
2019-04-04T03:15:35.747Z,2.37
2019-04-04T03:18:42.666Z,2.97
2019-04-04T03:21:49.528Z,3.87
2019-04-04T03:28:02.539Z,3.37
2019-04-04T03:31:09.839Z,3.73
2019-04-04T03:37:24.902Z,2.60
2019-04-04T03:40:32.117Z,3.40
2019-04-04T03:43:39.265Z,3.47
2019-04-04T03:46:46.263Z,3.57
2019-04-04T03:49:57.618Z,2.97
2019-04-04T03:53:04.282Z,3.27
2019-04-04T03:56:11.261Z,2.53
2019-04-04T03:59:18.725Z,4.03
2019-04-04T04:02:25.693Z,2.47
2019-04-04T04:05:35.562Z,2.33
2019-04-04T04:08:41.505Z,2.87
2019-04-04T04:11:48.628Z,2.30
2019-04-04T04:14:55.995Z,1.53
2019-04-04T04:18:03.323Z,2.10
2019-04-04T04:24:18.761Z,2.83
2019-04-04T04:27:25.721Z,2.70
2019-04-04T04:30:32.706Z,2.23
2019-04-04T04:33:39.914Z,4.47
2019-04-04T04:36:47.965Z,3.67
2019-04-04T04:39:56.065Z,3.20
2019-04-04T04:43:03.303Z,2.50
2019-04-04T04:46:10.525Z,2.37
2019-04-04T04:49:17.613Z,4.03
2019-04-04T04:52:24.540Z,2.83
2019-04-04T04:55:31.752Z,6.23
2019-04-04T04:58:41.758Z,3.53
2019-04-04T05:01:50.409Z,4.07
2019-04-04T05:04:57.272Z,3.27
2019-04-04T05:08:05.719Z,7.30
2019-04-04T05:11:14.495Z,5.47
2019-04-04T05:14:21.266Z,3.80
2019-04-04T05:20:35.260Z,6.97
2019-04-04T05:23:44.870Z,7.57
2019-04-04T05:26:52.278Z,11.53
2019-04-04T05:30:01.298Z,9.07
2019-04-04T05:33:08.257Z,6.87
2019-04-04T05:36:15.498Z,11.77
2019-04-04T05:39:23.830Z,10.37
2019-04-04T05:42:33.112Z,21.37
2019-04-04T05:45:40.939Z,4.87
2019-04-04T05:48:48.341Z,16.83
2019-04-04T05:51:55.879Z,7.10
2019-04-04T05:55:03.244Z,8.77
2019-04-04T05:58:10.560Z,6.23
2019-04-04T06:01:22.292Z,5.80
2019-04-04T06:04:29.314Z,4.47
2019-04-04T06:07:37.089Z,5.53
2019-04-04T06:10:44.232Z,6.70
2019-04-04T06:13:51.272Z,5.90
2019-04-04T06:16:58.607Z,12.07
2019-04-04T06:20:08.516Z,6.50
2019-04-04T06:23:15.676Z,11.50
2019-04-04T06:26:23.379Z,7.73
2019-04-04T06:35:47.249Z,13.13
2019-04-04T06:38:55.489Z,24.80
2019-04-04T06:42:03.923Z,33.07
2019-04-04T06:45:15.113Z,20.77
2019-04-04T06:48:20.450Z,18.57
2019-04-04T06:51:27.721Z,12.67
2019-04-04T06:54:35.570Z,12.17
2019-04-04T06:57:42.974Z,10.10
2019-04-04T07:00:50.335Z,10.53
2019-04-04T07:03:59.532Z,10.10
2019-04-04T07:10:12.666Z,9.00
2019-04-04T07:13:21.897Z,14.37
2019-04-04T07:19:35.314Z,10.20
2019-04-04T07:22:43.557Z,14.20
2019-04-04T07:25:53.328Z,13.37
2019-04-04T07:28:59.929Z,23.30
2019-04-04T07:32:09.482Z,17.97
2019-04-04T07:35:17.136Z,12.47
2019-04-04T07:38:26.620Z,15.80
2019-04-04T07:41:34.651Z,12.50
2019-04-04T07:44:42.745Z,12.73
2019-04-04T07:47:50.686Z,12.63
2019-04-04T07:50:58.547Z,15.47
2019-04-04T07:54:07.380Z,18.40
2019-04-04T07:57:17.343Z,14.80
2019-04-04T08:00:27.530Z,13.57
2019-04-04T08:03:34.887Z,14.80
2019-04-04T08:06:41.912Z,20.97
2019-04-04T08:09:49.073Z,32.30
2019-04-04T08:12:57.082Z,21.47
2019-04-04T08:16:06.320Z,23.60
2019-04-04T08:22:20.592Z,22.07
2019-04-04T08:25:28.313Z,20.20
2019-04-04T08:28:35.518Z,20.77
2019-04-04T08:31:44.418Z,17.63
2019-04-04T08:37:57.590Z,21.63
2019-04-04T08:41:05.266Z,34.63
2019-04-04T08:44:12.261Z,23.90
2019-04-04T08:47:19.426Z,21.20
2019-04-04T08:53:40.228Z,20.67
2019-04-04T08:56:43.277Z,21.20
2019-04-04T08:59:50.358Z,23.63
2019-04-04T09:02:59.257Z,21.30
2019-04-04T09:06:06.544Z,25.30
2019-04-04T09:09:14.059Z,26.80
2019-04-04T09:12:20.924Z,34.17
2019-04-04T09:15:27.781Z,35.07
2019-04-04T09:18:35.334Z,36.13
2019-04-04T09:24:49.274Z,48.87
2019-04-04T09:27:56.902Z,31.63
2019-04-04T09:31:04.755Z,31.10
2019-04-04T09:34:12.277Z,26.77
2019-04-04T09:37:19.416Z,30.73
2019-04-04T09:43:33.255Z,24.77
2019-04-04T09:46:41.004Z,35.00
2019-04-04T09:49:48.277Z,24.90
2019-04-04T09:52:55.316Z,26.33
2019-04-04T09:59:08.792Z,26.10
2019-04-04T10:02:15.834Z,26.23
2019-04-04T10:05:23.518Z,24.33
2019-04-04T10:08:31.067Z,24.67
2019-04-04T10:11:38.612Z,24.27
2019-04-04T10:14:45.998Z,25.47
2019-04-04T10:17:53.363Z,23.40
2019-04-04T10:24:09.389Z,22.87
2019-04-04T10:27:16.755Z,21.70
2019-04-04T10:30:24.175Z,22.90
2019-04-04T10:33:32.726Z,25.27
2019-04-04T10:36:39.852Z,23.33
2019-04-04T10:39:48.260Z,25.73
2019-04-04T10:42:55.590Z,21.03
2019-04-04T10:46:03.292Z,23.47
2019-04-04T10:52:17.303Z,36.97
2019-04-04T10:58:31.759Z,19.30
2019-04-04T11:01:40.436Z,21.77
2019-04-04T11:04:49.016Z,18.63
2019-04-04T11:07:56.886Z,18.90
2019-04-04T11:11:04.252Z,21.33
2019-04-04T11:14:11.369Z,19.67
2019-04-04T11:17:18.328Z,19.63
2019-04-04T11:20:25.879Z,18.67
2019-04-04T11:23:33.774Z,21.80
2019-04-04T11:26:40.734Z,24.60
2019-04-04T11:29:47.942Z,19.20
2019-04-04T11:32:55.672Z,21.33
2019-04-04T11:36:03.350Z,18.33
2019-04-04T11:45:25.995Z,19.90
2019-04-04T11:48:33.723Z,18.93
2019-04-04T11:51:41.283Z,25.33
2019-04-04T11:55:01.938Z,21.47
2019-04-04T11:58:10.951Z,19.13
2019-04-04T12:01:20.643Z,16.93
2019-04-04T12:04:27.677Z,17.43
2019-04-04T12:07:38.398Z,15.70
2019-04-04T12:10:45.111Z,15.47
2019-04-04T12:13:53.176Z,15.73
2019-04-04T12:17:01.191Z,21.33
2019-04-04T12:20:08.987Z,22.83
2019-04-04T12:23:17.219Z,16.47
2019-04-04T12:26:25.429Z,14.60
2019-04-04T12:29:33.653Z,16.43
2019-04-04T12:32:43.667Z,19.03
2019-04-04T12:35:52.394Z,17.77
2019-04-04T12:39:02.261Z,21.73
2019-04-04T12:42:11.529Z,23.20
2019-04-04T12:45:19.286Z,20.93
2019-04-04T12:54:40.578Z,20.43
2019-04-04T12:57:48.406Z,18.43
2019-04-04T13:00:57.236Z,19.37
2019-04-04T13:04:04.719Z,18.30
2019-04-04T13:07:12.731Z,21.40
2019-04-04T13:10:32.054Z,19.70
2019-04-04T13:13:29.639Z,24.03
2019-04-04T13:16:39.009Z,24.13
2019-04-04T13:19:47.335Z,28.23
2019-04-04T13:26:01.430Z,19.63
2019-04-04T13:32:15.262Z,25.00
2019-04-04T13:35:22.933Z,21.27
2019-04-04T13:38:30.301Z,21.20
2019-04-04T13:41:40.700Z,19.93
2019-04-04T13:44:47.757Z,22.30
2019-04-04T13:47:55.359Z,25.13
2019-04-04T13:54:10.764Z,24.93
2019-04-04T13:57:19.789Z,23.57
2019-04-04T14:00:27.043Z,29.40
2019-04-04T14:03:34.704Z,30.10
2019-04-04T14:06:43.324Z,25.87
2019-04-04T14:09:51.081Z,26.63
2019-04-04T14:13:00.310Z,28.00
2019-04-04T14:16:08.589Z,29.37
2019-04-04T14:19:16.315Z,29.83
2019-04-04T14:22:24.328Z,27.87
2019-04-04T14:25:31.779Z,33.70
2019-04-04T14:28:39.583Z,30.50
2019-04-04T14:31:47.273Z,31.30
2019-04-04T14:34:55.215Z,32.70
2019-04-04T14:38:03.271Z,32.70
2019-04-04T14:41:12.003Z,36.50
2019-04-04T14:44:19.399Z,37.90
2019-04-04T14:50:32.732Z,42.87
2019-04-04T14:53:40.445Z,43.93
2019-04-04T14:56:47.347Z,41.70
2019-04-04T14:59:54.947Z,51.00
2019-04-04T15:03:02.342Z,35.40
2019-04-04T15:06:09.811Z,35.20
2019-04-04T15:09:17.278Z,26.80
2019-04-04T15:12:28.302Z,25.07
2019-04-04T15:18:42.229Z,24.20
2019-04-04T15:21:51.691Z,28.70
2019-04-04T15:24:58.770Z,23.47
2019-04-04T15:28:06.179Z,27.37
2019-04-04T15:31:15.469Z,26.13
2019-04-04T15:34:23.884Z,25.10
2019-04-04T15:37:32.115Z,26.30
2019-04-04T15:40:39.430Z,29.67
2019-04-04T15:43:47.672Z,25.83
2019-04-04T15:46:55.250Z,28.20
2019-04-04T15:50:02.915Z,25.50
2019-04-04T15:53:10.303Z,29.47
2019-04-04T15:56:17.404Z,28.40
2019-04-04T15:59:25.601Z,30.20
2019-04-04T16:02:33.361Z,55.90
2019-04-04T16:05:42.942Z,37.13
2019-04-04T16:08:50.346Z,27.20
2019-04-04T16:18:12.938Z,30.17
2019-04-04T16:21:20.725Z,29.43
2019-04-04T16:24:29.258Z,28.93
2019-04-04T16:27:36.375Z,28.97
2019-04-04T16:33:49.778Z,27.27
2019-04-04T16:36:58.405Z,28.23
2019-04-04T16:40:10.449Z,26.50
2019-04-04T16:43:17.751Z,23.03
2019-04-04T16:46:26.505Z,29.90
2019-04-04T16:49:34.112Z,26.90
2019-04-04T16:52:41.931Z,23.87
2019-04-04T16:55:49.402Z,23.43
2019-04-04T17:02:04.296Z,28.30
2019-04-04T17:08:19.435Z,24.87
2019-04-04T17:14:34.294Z,25.07
2019-04-04T17:17:44.397Z,27.60
2019-04-04T17:20:51.441Z,24.30
2019-04-04T17:23:58.622Z,25.60
2019-04-04T17:27:08.349Z,28.10
2019-04-04T17:33:22.397Z,28.37
2019-04-04T17:39:38.810Z,29.03
2019-04-04T17:42:46.288Z,27.67
2019-04-04T17:45:54.145Z,28.47
2019-04-04T17:49:02.179Z,32.53
2019-04-04T17:52:10.356Z,28.00
2019-04-04T17:55:19.733Z,29.73
2019-04-04T17:58:27.462Z,32.53
2019-04-04T18:01:36.320Z,32.43
2019-04-04T18:04:48.537Z,30.80
2019-04-04T18:07:54.430Z,34.33
2019-04-04T18:11:01.662Z,37.90
2019-04-04T18:14:11.386Z,35.13
2019-04-04T18:20:24.762Z,38.13
2019-04-04T18:23:33.297Z,36.90
2019-04-04T18:26:40.685Z,39.27
2019-04-04T18:29:48.360Z,42.87
2019-04-04T18:32:56.798Z,39.53
2019-04-04T18:36:04.588Z,44.27
2019-04-04T18:39:13.607Z,46.77
2019-04-04T18:42:20.623Z,46.27
2019-04-04T18:45:28.259Z,42.30
2019-04-04T18:48:37.376Z,44.40
2019-04-04T18:54:53.991Z,47.50
2019-04-04T18:58:01.581Z,45.97
2019-04-04T19:01:09.508Z,49.00
2019-04-04T19:04:16.980Z,50.00
2019-04-04T19:10:31.450Z,56.93
2019-04-04T19:16:47.187Z,45.63
2019-04-04T19:19:54.369Z,50.07
2019-04-04T19:23:01.822Z,52.73
2019-04-04T19:26:11.504Z,52.03
2019-04-04T19:29:20.066Z,50.40
2019-04-04T19:32:28.246Z,51.00
2019-04-04T19:35:35.974Z,53.17
2019-04-04T19:38:43.486Z,51.57
2019-04-04T19:41:50.985Z,49.77
2019-04-04T19:44:58.804Z,54.90
2019-04-04T19:48:07.464Z,53.07
2019-04-04T19:51:15.557Z,52.90
2019-04-04T19:54:24.376Z,53.50
2019-04-04T19:57:34.901Z,60.07
2019-04-04T20:00:42.958Z,54.30
2019-04-04T20:03:51.262Z,65.43
2019-04-04T20:06:58.796Z,58.87
2019-04-04T20:10:09.992Z,61.80
2019-04-04T20:13:30.017Z,64.07
2019-04-04T20:16:28.193Z,70.33
2019-04-04T20:19:38.261Z,64.33
2019-04-04T20:22:45.586Z,66.00
2019-04-04T20:25:53.253Z,67.63
2019-04-04T20:29:02.319Z,69.40
2019-04-04T20:32:10.270Z,66.03
2019-04-04T20:35:17.618Z,66.50
2019-04-04T20:38:26.342Z,72.00
2019-04-04T20:44:41.485Z,67.60
2019-04-04T20:47:50.272Z,69.33
2019-04-04T20:50:58.483Z,75.70
2019-04-04T20:54:05.657Z,69.83
2019-04-04T20:57:13.360Z,73.87
2019-04-04T21:00:20.368Z,74.70
2019-04-04T21:06:35.656Z,70.67
2019-04-04T21:09:44.415Z,70.47
2019-04-04T21:15:58.638Z,92.13
2019-04-04T21:19:05.932Z,70.30
2019-04-04T21:22:26.552Z,79.37
2019-04-04T21:25:22.674Z,69.93
2019-04-04T21:28:30.311Z,72.40
2019-04-04T21:31:37.950Z,69.47
2019-04-04T21:34:45.324Z,70.17
2019-04-04T21:37:53.465Z,70.67
2019-04-04T21:44:09.208Z,68.70
2019-04-04T21:47:17.437Z,68.70
2019-04-04T21:53:31.160Z,65.07
2019-04-04T21:56:39.080Z,64.60
2019-04-04T21:59:46.285Z,72.30
2019-04-04T22:02:53.272Z,71.67
2019-04-04T22:06:01.190Z,67.77
2019-04-04T22:09:12.972Z,60.25
2019-04-04T22:12:20.942Z,70.17
2019-04-04T22:15:28.336Z,66.47
2019-04-04T22:18:35.966Z,71.40
2019-04-04T22:21:43.108Z,71.43
2019-04-04T22:24:50.336Z,72.73
2019-04-04T22:27:57.276Z,66.27
2019-04-04T22:31:04.726Z,69.90
2019-04-04T22:34:11.908Z,67.23
2019-04-04T22:37:19.452Z,72.50
2019-04-04T22:40:27.509Z,71.80
2019-04-04T22:43:35.355Z,64.77
2019-04-04T22:46:42.919Z,70.43
2019-04-04T22:49:50.307Z,62.37
2019-04-04T22:52:57.293Z,67.67
2019-04-04T22:56:04.385Z,64.50
2019-04-04T22:59:12.272Z,67.27
2019-04-04T23:02:19.261Z,72.40
2019-04-04T23:05:26.269Z,61.17
2019-04-04T23:08:33.328Z,68.07
2019-04-04T23:11:41.309Z,67.40
2019-04-04T23:14:48.768Z,66.80
2019-04-04T23:17:56.290Z,62.37
2019-04-04T23:21:04.364Z,66.90
2019-04-04T23:27:18.369Z,68.60
2019-04-04T23:30:25.385Z,68.23
2019-04-04T23:36:38.893Z,75.83
2019-04-04T23:40:36.788Z,84.57
2019-04-04T23:43:44.358Z,76.33
2019-04-04T23:46:51.715Z,80.63
2019-04-04T23:49:58.724Z,73.33
2019-04-04T23:53:06.403Z,80.23
2019-04-04T23:56:13.443Z,79.90
